Archival Weather

Chicago O'Hare International

Chicago, Illinois (KORD)

Report from: Saturday, February 10, 2024 12:51 AM CST
Current time: Wednesday, April 24, 2024 1:09 PM CDT

Current weather – Weather history – Daily summaries
Weather forecast

Temperature1.7°C (35.1°F)
Wind chill0.1°C (32.2°F)
Dew point-2.2°C (28.0°F)
Winds 3 kts (1.5 m/s, 3.5 mph) Southwest (220°)
Visibility10 mi. (16.1 km)
Clouds Sky clear
Altimeter29.82 in.Hg (1010 mB)
Relative humidity75 %
Density altitude-1,435 ft. (-437 m)
Sea-level pressure101.0 kPa (1010 mB, 29.83 in.Hg)
Remarks Automated weather observing station with precipitation discriminator
Flight conditions Visual Meteorological Conditions
Raw dataKORD 100651Z 22003KT 10SM CLR 02/M02 A2982 RMK AO2 SLP102 T00171022
An error has occurred. This application may no longer respond until reloaded. Reload 🗙